Latest Coastal Weather Observations for Mornington Island Airport

IDQ60701

Issued at 1:52 am EST Friday 5 March 2021 (issued every 10 minutes, with the page automatically refreshed every 10 minutes)

About coastal observations | Map of coastal stations | Coastal observations for QLD | Marine services | Other Formats
Station Details ID: 029182 Name: MORNINGTON ISLAND AIRPORT Lat: -16.66 Lon: 139.17 Height: 9.52 m
Data from the previous 72 hours. | See also: Recent months at Mornington Island Airport
Date/Time
EST
Wind Sea
Height
m
Swell Vis
km
Cloud Weather Temp
°C
Press
MSL
hPa
Rain since
9am
mm
Dir  Spd
kts
Gust
kts
Height
m
Period
s
Dir
05/01:30am N 5 6 - - - - 10 - - 26.3 1005.8 0.0
05/01:00am N 5 6 - - - - 10 - - 26.6 1005.7 0.0
05/12:30am N 6 7 - - - - 10 - - 26.3 1005.9 0.0
05/12:00am NE 4 5 - - - - 10 - - 26.1 1006.0 0.0
 
Date/Time
EST
Wind Sea
Height
m
Swell Vis
km
Cloud Weather Temp
°C
Press
MSL
hPa
Rain since
9am
mm
Dir  Spd
kts
Gust
kts
Height
m
Period
s
Dir
04/11:30pm NE 5 7 - - - - 10 - - 26.4 1006.0 0.0
04/11:00pm NNE 6 7 - - - - 10 - - 26.6 1005.8 0.0
04/10:30pm N 6 7 - - - - 10 - - 27.0 1005.8 0.0
04/10:00pm NE 6 7 - - - - 10 - - 27.0 1005.6 0.0
04/09:30pm NE 5 6 - - - - 10 - - 27.5 1005.2 0.0
04/09:00pm NNE 6 6 - - - - 10 - - 27.8 1004.9 0.0
04/08:30pm NE 4 5 - - - - 10 - - 27.6 1004.9 0.0
04/08:00pm NE 3 5 - - - - 10 - - 28.0 1004.6 0.0
04/07:30pm NE 5 6 - - - - 10 - - 29.2 1004.3 0.0
04/07:00pm SE 4 5 - - - - 10 - - 30.3 1004.0 0.0
04/06:30pm SE 5 6 - - - - 10 - - 31.7 1003.7 0.0
04/06:00pm SSE 5 7 - - - - 10 - - 32.5 1003.6 0.0
04/05:30pm SSE 6 8 - - - - 10 - - 33.2 1003.5 0.0
04/05:00pm SE 7 10 - - - - 10 - - 33.9 1003.3 0.0
04/04:30pm SE 8 14 - - - - 10 - - 34.8 1003.2 0.0
04/04:00pm SE 9 13 - - - - 10 - - 35.2 1003.2 0.0
04/03:30pm SE 11 17 - - - - 10 - - 35.1 1003.2 0.0
04/03:00pm SE 11 17 - - - - 10 - - 35.1 1003.7 0.0
04/02:30pm SE 11 17 - - - - 10 - - 34.7 1004.3 0.0
04/02:00pm SE 12 17 - - - - 10 - - 34.1 1005.0 0.0
04/01:30pm SSE 11 16 - - - - 10 - - 34.1 1005.5 0.0
04/01:00pm SE 10 16 - - - - 10 - - 34.0 1005.8 0.0
04/12:30pm SE 12 18 - - - - 10 - - 34.3 1006.0 0.0
04/12:00pm SE 15 23 - - - - 10 - - 33.7 1006.3 0.0
04/11:30am ESE 15 22 - - - - 10 - - 33.8 1006.6 0.0
04/11:00am SE 12 18 - - - - 10 - - 33.5 1007.0 0.0
04/10:30am SE 12 21 - - - - 10 - - 33.2 1007.3 0.0
04/10:00am SSE 12 18 - - - - 10 - - 32.3 1007.2 0.0
04/09:30am SSE 8 13 - - - - 10 - - 32.0 1007.1 0.0
04/09:00am S 6 9 - - - - 10 - - 30.9 1007.1 0.0
04/08:30am S 6 11 - - - - 10 - - 30.8 1006.9 0.0
04/08:00am S 6 9 - - - - 10 - - 30.2 1006.6 0.0
04/07:30am SSW 5 8 - - - - 10 - - 29.2 1006.3 0.0
04/07:00am SSW 6 9 - - - - 10 - - 29.4 1006.1 0.0
04/06:30am SW 10 14 - - - - 10 - - 30.0 1005.4 0.0
04/06:00am SW 9 13 - - - - 10 - - 29.8 1004.9 0.0
04/05:30am SW 7 13 - - - - 10 - - 29.9 1004.4 0.0
04/05:00am WSW 7 13 - - - - 10 - - 29.9 1004.2 0.0
04/04:30am WSW 8 11 - - - - 10 - - 29.9 1004.0 0.0
04/04:00am WSW 7 11 - - - - 10 - - 30.0 1004.0 0.0
04/03:30am WSW 9 11 - - - - 10 - - 30.2 1004.1 0.0
04/03:00am WSW 8 11 - - - - 10 - - 30.1 1004.0 0.0
04/02:30am WSW 8 11 - - - - 10 - - 29.9 1004.1 0.0
04/02:00am WSW 6 9 - - - - 10 - - 29.6 1004.3 0.0
04/01:30am WNW 6 8 - - - - 10 - - 28.9 1004.6 0.0
04/01:00am SE 5 6 - - - - 10 - - 28.4 1004.9 0.0
04/12:30am SE 3 4 - - - - 10 - - 28.4 1005.2 0.0
04/12:00am SE 3 4 - - - - 10 - - 28.7 1005.3 0.0
 
Date/Time
EST
Wind Sea
Height
m
Swell Vis
km
Cloud Weather Temp
°C
Press
MSL
hPa
Rain since
9am
mm
Dir  Spd
kts
Gust
kts
Height
m
Period
s
Dir
03/11:30pm SE 5 6 - - - - 10 - - 28.3 1005.6 0.0
03/11:00pm SE 5 6 - - - - 10 - - 28.6 1005.7 0.0
03/10:30pm SE 4 5 - - - - 10 - - 28.6 1005.7 0.0
03/10:00pm SE 3 6 - - - - 10 - - 28.6 1005.6 0.0
03/09:30pm SE 3 5 - - - - 10 - - 28.8 1005.4 0.0
03/09:00pm CALM 0 0 - - - - 10 - - 29.2 1005.0 0.0
03/08:30pm CALM 0 0 - - - - 10 - - 29.8 1004.6 0.0
03/08:00pm SE 3 4 - - - - 10 - - 30.4 1004.1 0.0
03/07:30pm CALM 0 0 - - - - 10 - - 30.9 1003.8 0.0
03/07:00pm CALM 0 4 - - - - 10 - - 32.2 1003.7 0.0
03/06:30pm CALM 0 0 - - - - 10 - - 34.8 1003.7 0.0
03/06:00pm SE 3 6 - - - - 10 - - 34.5 1003.6 0.0
03/05:30pm SE 5 7 - - - - 10 - - 35.2 1003.5 0.0
03/05:00pm SE 7 10 - - - - 10 - - 35.2 1003.6 0.0
03/04:30pm SE 8 12 - - - - 10 - - 35.3 1003.4 0.0
03/04:00pm SE 9 13 - - - - 10 - - 34.9 1003.3 0.0
03/03:30pm SSE 9 14 - - - - 10 - - 34.6 1003.5 0.0
03/03:00pm SE 10 15 - - - - 10 - - 35.0 1003.7 0.0
03/02:30pm SE 10 14 - - - - 10 - - 35.2 1004.2 0.0
03/02:00pm SSE 11 16 - - - - 10 - - 35.0 1004.9 0.0
03/01:30pm SSE 13 21 - - - - 10 - - 34.5 1005.4 0.0
03/01:00pm S 10 17 - - - - 10 - - 36.1 1005.6 0.0
03/12:30pm S 10 15 - - - - 10 - - 35.5 1005.9 0.0
03/12:00pm SSW 8 14 - - - - 10 - - 35.0 1006.4 0.0
03/11:30am WSW 7 10 - - - - 10 - - 33.9 1006.5 0.0
03/11:00am SW 7 11 - - - - 10 - - 32.7 1006.8 0.0
03/10:30am SW 7 11 - - - - 10 - - 32.5 1007.2 0.0
03/10:00am SW 7 11 - - - - 10 - - 31.8 1007.2 0.0
03/09:30am WSW 9 11 - - - - 10 - - 31.0 1007.3 0.0
03/09:00am WSW 8 11 - - - - 10 - - 31.1 1007.4 0.2
03/08:30am WSW 9 12 - - - - 10 - - 30.7 1007.3 0.2
03/08:00am WSW 8 11 - - - - 10 Partly cloudy - 30.4 1007.1 0.2
03/07:30am SW 9 14 - - - - 10 - - 30.0 1006.8 0.2
03/07:00am WSW 9 13 - - - - 10 - - 29.7 1006.4 0.2
03/06:30am WSW 10 13 - - - - 10 - - 29.5 1006.0 0.2
03/06:00am WSW 10 13 - - - - 10 - - 29.7 1005.6 0.2
03/05:30am WSW 8 12 - - - - 10 - - 29.8 1005.3 0.2
03/05:00am WSW 9 12 - - - - 10 - - 30.1 1004.9 0.2
03/04:30am WSW 8 10 - - - - 10 - - 30.2 1004.7 0.2
03/04:00am WSW 9 12 - - - - 10 - - 30.2 1004.3 0.2
03/03:30am W 8 10 - - - - 10 - - 29.9 1004.3 0.2
03/03:00am W 6 8 - - - - 10 - - 29.8 1004.4 0.2
03/02:30am WNW 7 9 - - - - 10 - - 29.6 1004.4 0.2
03/02:00am WNW 5 7 - - - - 10 - - 29.2 1004.5 0.2
03/01:30am WNW 6 7 - - - - 10 - - 29.1 1004.6 0.2
03/01:00am NW 4 5 - - - - 10 - - 28.2 1005.0 0.2
03/12:30am NW 5 5 - - - - 10 - - 28.2 1005.2 0.2
03/12:00am NNW 4 5 - - - - 10 - - 28.2 1005.5 0.2
 
Date/Time
EST
Wind Sea
Height
m
Swell Vis
km
Cloud Weather Temp
°C
Press
MSL
hPa
Rain since
9am
mm
Dir  Spd
kts
Gust
kts
Height
m
Period
s
Dir
02/11:30pm NNW 3 4 - - - - 10 - - 28.3 1005.8 0.2
02/11:00pm NNW 3 5 - - - - 10 - - 28.5 1006.0 0.2
02/10:30pm NNW 3 4 - - - - 10 - - 28.7 1006.0 0.2
02/10:00pm NW 6 8 - - - - 10 - - 28.9 1005.8 0.2
02/09:30pm NNW 3 5 - - - - 10 - - 28.4 1005.6 0.2
02/09:00pm CALM 0 0 - - - - 10 - - 28.9 1005.3 0.2
02/08:30pm NNE 3 4 - - - - 10 - - 29.1 1005.2 0.2
02/08:00pm NNE 4 5 - - - - 10 - - 29.4 1005.1 0.2
02/07:30pm NE 5 6 - - - - 10 - - 29.9 1004.9 0.2
02/07:00pm NE 3 4 - - - - 10 - - 30.8 1004.6 0.2
02/06:30pm ENE 6 7 - - - - 10 - - 31.5 1004.4 0.2
02/06:00pm E 6 8 - - - - 10 - - 32.2 1004.1 0.2
02/05:30pm ESE 6 8 - - - - 10 - - 32.9 1003.7 0.2
02/05:00pm SE 6 9 - - - - 10 - - 33.6 1003.6 0.2
02/04:30pm SE 7 11 - - - - 10 - - 34.2 1003.6 0.2
02/04:00pm SSE 7 10 - - - - 10 - - 34.2 1003.5 0.2
02/03:30pm SSE 9 14 - - - - 10 - - 34.3 1003.7 0.2
02/03:00pm SSE 8 12 - - - - 10 Mostly clear - 33.8 1004.0 0.2
02/02:30pm SSE 9 14 - - - - 10 - - 34.6 1004.1 0.2
02/02:00pm SSE 10 15 - - - - 10 - - 34.4 1004.5 0.2
02/01:30pm SSE 9 13 - - - - 10 - - 34.8 1004.9 0.2
02/01:00pm SSE 8 13 - - - - 10 - - 34.7 1005.4 0.2
02/12:30pm SSE 7 12 - - - - 10 - - 33.7 1005.9 0.2
02/12:00pm SE 7 10 - - - - 10 - - 32.6 1006.5 0.2
02/11:30am SE 7 10 - - - - 10 - - 31.9 1006.7 0.2
02/11:00am SE 8 11 - - - - 10 - - 31.7 1007.0 0.2
02/10:30am SE 7 9 - - - - 10 - - 32.6 1007.1 0.2
02/10:00am S 5 7 - - - - 10 - - 32.5 1007.1 0.2
02/09:30am SW 5 8 - - - - 10 - - 31.5 1006.9 0.2
02/09:00am SSW 4 6 - - - - 10 - - 30.6 1006.7 4.2
02/08:30am S 4 6 - - - - 10 - - 30.3 1006.5 4.2
02/08:00am S 3 4 - - - - 10 - - 29.8 1006.4 4.2
02/07:30am WSW 5 6 - - - - 10 - - 29.4 1006.0 4.2
02/07:00am SW 5 8 - - - - 10 - - 28.9 1005.8 4.2
02/06:30am WSW 6 9 - - - - 10 - - 28.8 1005.6 4.2
02/06:00am WSW 7 10 - - - - 10 - - 28.8 1005.4 4.2
02/05:30am WSW 7 9 - - - - 10 - - 28.9 1005.1 4.2
02/05:00am WSW 7 9 - - - - 10 - - 28.9 1005.0 4.2
02/04:30am WSW 6 8 - - - - 10 - - 28.8 1005.2 4.2
02/04:00am WSW 5 7 - - - - 10 - - 28.5 1005.1 4.2
02/03:30am W 4 5 - - - - 10 - - 27.6 1005.0 4.2
02/03:00am W 1 3 - - - - 10 - - 27.7 1005.2 4.2
02/02:30am W 4 5 - - - - 10 - - 28.3 1005.2 4.2
02/02:00am WSW 4 6 - - - - 10 - - 27.7 1005.1 4.2

Other formats

Comma delimited format used in spreadsheet applications
http://www.bom.gov.au/fwo/IDQ60701/IDQ60701.94254.axf

JavaScript Object Notation format (JSON) in row-major order
http://www.bom.gov.au/fwo/IDQ60701/IDQ60701.94254.json

Data quality

Most of these data are generated automatically and are frequently updated. Quality checks on data are not normally performed. It is possible for incorrect values to appear. Refer to information at About Latest Weather Observations and please check the disclaimer before using these data.